CYOW

Ottawa / Macdonald-Cartier International Airport

Ottawa, , Canada
METAR CYOW 161835Z 29025G32KT 3SM R32/3500VP6000FT/D R07/3000VP6000FT/D BLSN SCT070 M07/M13 A2990 RMK AC4 VIS VRB 1-6 PRESRR SLP133
Observed Flight Rules
Jan-16 @ 18:35 UTC (21 minutes ago) Marginal Visual Flight Rules
Wind Visibility Clouds Conditions
290° at 25 knots
 Gusting to 32 knots
3 miles
  • Scattered at 7,000' AGL
  • Blowing
  • Snow
Temperatures Readings
Current -7°C / 19°F
Dewpoint -13°C / 9°F
Humidity 63%
Altimeter 29.9" Hg
Pressure 1013.3 hPa
Elevation 114
METAR CYOW 161835Z 29025G32KT 3SM R32/3500VP6000FT/D R07/3000VP6000FT/D BLSN SCT070 M07/M13 A2990 RMK AC4 VIS VRB 1-6 PRESRR SLP133
Observed Flight Rules
Jan-16 @ 18:35 UTC
(21 minutes ago)
MVFR
Wind Visibility
290° at 25 knots
 Gusting to 32 knots
3 miles
Clouds
  • Scattered at 7,000' AGL
Conditions
  • Blowing
  • Snow
Temperature Dewpoint
-7°C / 19°F -13°C / 9°F
Humidity Altimeter Pressure
63% 29.9" Hg 1013.3 hPa